sensor_id;sensor_type;location;lat;lon;timestamp;P1;durP1;ratioP1;P2;durP2;ratioP2
27889;SDS011;15238;49.082;9.102;2023-08-31T00:01:28;3.50;;;2.10;;
27889;SDS011;15238;49.082;9.102;2023-08-31T00:03:29;1.98;;;1.80;;
27889;SDS011;15238;49.082;9.102;2023-08-31T00:05:30;2.28;;;1.63;;
27889;SDS011;15238;49.082;9.102;2023-08-31T00:07:31;4.40;;;1.90;;
27889;SDS011;15238;49.082;9.102;2023-08-31T00:09:32;4.40;;;2.30;;
27889;SDS011;15238;49.082;9.102;2023-08-31T00:11:32;6.18;;;2.30;;
27889;SDS011;15238;49.082;9.102;2023-08-31T00:13:33;4.50;;;2.38;;
27889;SDS011;15238;49.082;9.102;2023-08-31T00:15:33;3.97;;;1.45;;
27889;SDS011;15238;49.082;9.102;2023-08-31T00:17:35;6.10;;;1.83;;
27889;SDS011;15238;49.082;9.102;2023-08-31T00:19:36;5.22;;;1.73;;
27889;SDS011;15238;49.082;9.102;2023-08-31T00:21:36;4.05;;;1.80;;
27889;SDS011;15238;49.082;9.102;2023-08-31T00:23:37;2.50;;;1.55;;
27889;SDS011;15238;49.082;9.102;2023-08-31T00:25:37;1.77;;;1.45;;
27889;SDS011;15238;49.082;9.102;2023-08-31T00:27:38;2.10;;;1.63;;
27889;SDS011;15238;49.082;9.102;2023-08-31T00:29:40;2.08;;;1.58;;
27889;SDS011;15238;49.082;9.102;2023-08-31T00:31:41;2.25;;;1.70;;
27889;SDS011;15238;49.082;9.102;2023-08-31T00:33:44;3.10;;;1.75;;
27889;SDS011;15238;49.082;9.102;2023-08-31T00:35:46;4.10;;;1.60;;
27889;SDS011;15238;49.082;9.102;2023-08-31T00:37:48;2.78;;;1.73;;
27889;SDS011;15238;49.082;9.102;2023-08-31T00:39:49;5.40;;;1.85;;
27889;SDS011;15238;49.082;9.102;2023-08-31T00:41:52;2.45;;;1.45;;
27889;SDS011;15238;49.082;9.102;2023-08-31T00:43:52;2.25;;;1.75;;
27889;SDS011;15238;49.082;9.102;2023-08-31T00:45:54;5.28;;;1.83;;
27889;SDS011;15238;49.082;9.102;2023-08-31T00:47:58;1.65;;;1.55;;
27889;SDS011;15238;49.082;9.102;2023-08-31T00:49:58;2.50;;;1.90;;
27889;SDS011;15238;49.082;9.102;2023-08-31T00:51:59;2.03;;;1.70;;
27889;SDS011;15238;49.082;9.102;2023-08-31T00:54:00;2.63;;;1.40;;
27889;SDS011;15238;49.082;9.102;2023-08-31T00:56:00;4.15;;;1.92;;
27889;SDS011;15238;49.082;9.102;2023-08-31T00:58:02;3.17;;;1.70;;
27889;SDS011;15238;49.082;9.102;2023-08-31T01:00:03;2.45;;;1.80;;
27889;SDS011;15238;49.082;9.102;2023-08-31T01:02:17;4.70;;;1.92;;
27889;SDS011;15238;49.082;9.102;2023-08-31T01:04:31;3.63;;;2.55;;
27889;SDS011;15238;49.082;9.102;2023-08-31T01:12:15;1.58;;;1.42;;
27889;SDS011;15238;49.082;9.102;2023-08-31T01:14:10;3.65;;;1.70;;
27889;SDS011;15238;49.082;9.102;2023-08-31T01:16:16;4.80;;;1.75;;
27889;SDS011;15238;49.082;9.102;2023-08-31T01:18:17;2.42;;;1.63;;
27889;SDS011;15238;49.082;9.102;2023-08-31T01:23:06;4.28;;;1.95;;
27889;SDS011;15238;49.082;9.102;2023-08-31T01:25:10;2.25;;;1.58;;
27889;SDS011;15238;49.082;9.102;2023-08-31T01:27:12;3.47;;;1.70;;
27889;SDS011;15238;49.082;9.102;2023-08-31T01:29:13;3.95;;;2.10;;
27889;SDS011;15238;49.082;9.102;2023-08-31T01:31:14;3.45;;;2.00;;
27889;SDS011;15238;49.082;9.102;2023-08-31T01:33:15;4.28;;;1.65;;
27889;SDS011;15238;49.082;9.102;2023-08-31T01:35:16;4.25;;;1.70;;
27889;SDS011;15238;49.082;9.102;2023-08-31T01:37:22;1.98;;;1.60;;
27889;SDS011;15238;49.082;9.102;2023-08-31T01:39:39;2.90;;;1.88;;
27889;SDS011;15238;49.082;9.102;2023-08-31T01:41:48;4.07;;;1.73;;
27889;SDS011;15238;49.082;9.102;2023-08-31T01:43:55;2.47;;;1.90;;
27889;SDS011;15238;49.082;9.102;2023-08-31T01:45:57;4.00;;;1.77;;
27889;SDS011;15238;49.082;9.102;2023-08-31T01:47:58;2.03;;;1.63;;
27889;SDS011;15238;49.082;9.102;2023-08-31T01:49:59;3.40;;;1.80;;
27889;SDS011;15238;49.082;9.102;2023-08-31T01:52:00;4.03;;;1.77;;
27889;SDS011;15238;49.082;9.102;2023-08-31T01:54:01;2.42;;;1.92;;
27889;SDS011;15238;49.082;9.102;2023-08-31T01:56:02;5.88;;;2.20;;
27889;SDS011;15238;49.082;9.102;2023-08-31T01:58:03;4.38;;;2.03;;
27889;SDS011;15238;49.082;9.102;2023-08-31T02:00:03;3.45;;;2.08;;
27889;SDS011;15238;49.082;9.102;2023-08-31T02:02:05;2.85;;;2.08;;
27889;SDS011;15238;49.082;9.102;2023-08-31T02:04:06;4.43;;;2.40;;
27889;SDS011;15238;49.082;9.102;2023-08-31T02:06:07;6.22;;;2.40;;
27889;SDS011;15238;49.082;9.102;2023-08-31T02:08:07;5.93;;;2.90;;
27889;SDS011;15238;49.082;9.102;2023-08-31T02:10:08;5.10;;;2.42;;
27889;SDS011;15238;49.082;9.102;2023-08-31T02:12:09;3.78;;;2.85;;
27889;SDS011;15238;49.082;9.102;2023-08-31T02:14:09;4.85;;;3.03;;
27889;SDS011;15238;49.082;9.102;2023-08-31T02:16:10;5.57;;;3.28;;
27889;SDS011;15238;49.082;9.102;2023-08-31T02:18:10;5.63;;;3.08;;
27889;SDS011;15238;49.082;9.102;2023-08-31T02:20:11;5.78;;;2.88;;
27889;SDS011;15238;49.082;9.102;2023-08-31T02:22:11;6.68;;;3.10;;
27889;SDS011;15238;49.082;9.102;2023-08-31T02:24:12;4.43;;;3.33;;
27889;SDS011;15238;49.082;9.102;2023-08-31T02:26:12;6.38;;;3.17;;
27889;SDS011;15238;49.082;9.102;2023-08-31T02:28:13;4.80;;;3.67;;
27889;SDS011;15238;49.082;9.102;2023-08-31T02:30:13;5.60;;;2.83;;
27889;SDS011;15238;49.082;9.102;2023-08-31T02:32:14;6.70;;;3.08;;
27889;SDS011;15238;49.082;9.102;2023-08-31T02:34:14;6.22;;;3.85;;
27889;SDS011;15238;49.082;9.102;2023-08-31T02:36:15;5.95;;;3.28;;
27889;SDS011;15238;49.082;9.102;2023-08-31T02:38:15;6.55;;;3.10;;
27889;SDS011;15238;49.082;9.102;2023-08-31T02:40:16;6.10;;;3.25;;
27889;SDS011;15238;49.082;9.102;2023-08-31T02:42:17;5.90;;;3.75;;
27889;SDS011;15238;49.082;9.102;2023-08-31T02:44:17;4.35;;;3.05;;
27889;SDS011;15238;49.082;9.102;2023-08-31T02:46:18;3.97;;;3.05;;
27889;SDS011;15238;49.082;9.102;2023-08-31T02:48:18;5.97;;;3.70;;
27889;SDS011;15238;49.082;9.102;2023-08-31T02:50:19;5.47;;;2.90;;
27889;SDS011;15238;49.082;9.102;2023-08-31T02:52:19;5.50;;;3.08;;
27889;SDS011;15238;49.082;9.102;2023-08-31T02:54:20;4.85;;;3.42;;
27889;SDS011;15238;49.082;9.102;2023-08-31T02:56:21;6.03;;;3.20;;
27889;SDS011;15238;49.082;9.102;2023-08-31T02:58:21;8.85;;;3.88;;
27889;SDS011;15238;49.082;9.102;2023-08-31T03:00:22;4.68;;;2.80;;
27889;SDS011;15238;49.082;9.102;2023-08-31T03:02:22;6.40;;;3.95;;
27889;SDS011;15238;49.082;9.102;2023-08-31T03:04:23;5.90;;;3.40;;
27889;SDS011;15238;49.082;9.102;2023-08-31T03:06:23;4.85;;;3.28;;
27889;SDS011;15238;49.082;9.102;2023-08-31T03:08:25;5.05;;;3.13;;
27889;SDS011;15238;49.082;9.102;2023-08-31T03:10:25;8.40;;;3.80;;
27889;SDS011;15238;49.082;9.102;2023-08-31T03:12:26;4.55;;;2.72;;
27889;SDS011;15238;49.082;9.102;2023-08-31T03:14:26;5.20;;;3.40;;
27889;SDS011;15238;49.082;9.102;2023-08-31T03:16:27;5.40;;;3.40;;
27889;SDS011;15238;49.082;9.102;2023-08-31T03:18:28;5.45;;;2.85;;
27889;SDS011;15238;49.082;9.102;2023-08-31T03:20:29;5.68;;;3.00;;
27889;SDS011;15238;49.082;9.102;2023-08-31T03:22:29;8.02;;;2.83;;
27889;SDS011;15238;49.082;9.102;2023-08-31T03:24:31;5.18;;;2.83;;
27889;SDS011;15238;49.082;9.102;2023-08-31T03:26:32;6.07;;;2.65;;
27889;SDS011;15238;49.082;9.102;2023-08-31T03:28:33;5.72;;;3.10;;
27889;SDS011;15238;49.082;9.102;2023-08-31T03:30:34;4.25;;;2.70;;
27889;SDS011;15238;49.082;9.102;2023-08-31T03:32:35;7.32;;;3.00;;
27889;SDS011;15238;49.082;9.102;2023-08-31T03:34:35;3.20;;;2.47;;
27889;SDS011;15238;49.082;9.102;2023-08-31T03:36:36;4.68;;;2.70;;
27889;SDS011;15238;49.082;9.102;2023-08-31T03:38:37;3.55;;;2.72;;
27889;SDS011;15238;49.082;9.102;2023-08-31T03:40:38;5.30;;;2.85;;
27889;SDS011;15238;49.082;9.102;2023-08-31T03:42:38;7.05;;;2.92;;
27889;SDS011;15238;49.082;9.102;2023-08-31T03:44:39;7.50;;;2.58;;
27889;SDS011;15238;49.082;9.102;2023-08-31T03:46:39;3.38;;;2.38;;
27889;SDS011;15238;49.082;9.102;2023-08-31T03:48:40;4.65;;;2.75;;
27889;SDS011;15238;49.082;9.102;2023-08-31T03:50:40;3.53;;;2.30;;
27889;SDS011;15238;49.082;9.102;2023-08-31T03:52:41;5.55;;;2.95;;
27889;SDS011;15238;49.082;9.102;2023-08-31T03:54:41;5.30;;;2.28;;
27889;SDS011;15238;49.082;9.102;2023-08-31T03:56:42;4.93;;;2.30;;
27889;SDS011;15238;49.082;9.102;2023-08-31T03:58:42;4.60;;;2.35;;
27889;SDS011;15238;49.082;9.102;2023-08-31T04:00:43;5.50;;;2.25;;
27889;SDS011;15238;49.082;9.102;2023-08-31T04:02:43;4.82;;;2.65;;
27889;SDS011;15238;49.082;9.102;2023-08-31T04:04:44;3.78;;;2.20;;
27889;SDS011;15238;49.082;9.102;2023-08-31T04:06:45;5.22;;;2.42;;
27889;SDS011;15238;49.082;9.102;2023-08-31T04:08:45;4.18;;;2.03;;
27889;SDS011;15238;49.082;9.102;2023-08-31T04:10:46;5.43;;;2.35;;
27889;SDS011;15238;49.082;9.102;2023-08-31T04:12:47;4.78;;;2.58;;
27889;SDS011;15238;49.082;9.102;2023-08-31T04:14:48;5.32;;;2.15;;
27889;SDS011;15238;49.082;9.102;2023-08-31T04:16:48;2.83;;;1.90;;
27889;SDS011;15238;49.082;9.102;2023-08-31T04:18:50;6.75;;;2.25;;
27889;SDS011;15238;49.082;9.102;2023-08-31T04:20:52;3.38;;;1.85;;
27889;SDS011;15238;49.082;9.102;2023-08-31T04:22:53;4.75;;;2.03;;
27889;SDS011;15238;49.082;9.102;2023-08-31T04:24:54;3.65;;;2.13;;
27889;SDS011;15238;49.082;9.102;2023-08-31T04:26:54;3.20;;;1.92;;
27889;SDS011;15238;49.082;9.102;2023-08-31T04:28:56;8.10;;;2.20;;
27889;SDS011;15238;49.082;9.102;2023-08-31T04:30:56;4.60;;;2.20;;
27889;SDS011;15238;49.082;9.102;2023-08-31T04:32:57;3.50;;;1.95;;
27889;SDS011;15238;49.082;9.102;2023-08-31T04:34:57;5.70;;;2.10;;
27889;SDS011;15238;49.082;9.102;2023-08-31T04:36:58;3.90;;;2.33;;
27889;SDS011;15238;49.082;9.102;2023-08-31T04:38:58;7.07;;;2.22;;
27889;SDS011;15238;49.082;9.102;2023-08-31T04:40:59;6.97;;;2.28;;
27889;SDS011;15238;49.082;9.102;2023-08-31T04:43:00;6.57;;;1.98;;
27889;SDS011;15238;49.082;9.102;2023-08-31T04:45:01;3.53;;;1.40;;
27889;SDS011;15238;49.082;9.102;2023-08-31T04:47:02;4.53;;;2.03;;
27889;SDS011;15238;49.082;9.102;2023-08-31T04:49:02;6.75;;;1.95;;
27889;SDS011;15238;49.082;9.102;2023-08-31T04:51:03;5.30;;;2.00;;
27889;SDS011;15238;49.082;9.102;2023-08-31T04:53:04;4.88;;;1.58;;
27889;SDS011;15238;49.082;9.102;2023-08-31T04:55:05;4.00;;;1.80;;
27889;SDS011;15238;49.082;9.102;2023-08-31T04:57:12;6.43;;;2.30;;
27889;SDS011;15238;49.082;9.102;2023-08-31T04:59:12;7.47;;;2.25;;
27889;SDS011;15238;49.082;9.102;2023-08-31T05:01:13;5.10;;;1.77;;
27889;SDS011;15238;49.082;9.102;2023-08-31T05:03:14;7.07;;;2.28;;
27889;SDS011;15238;49.082;9.102;2023-08-31T05:05:15;7.18;;;2.30;;
27889;SDS011;15238;49.082;9.102;2023-08-31T05:07:15;7.90;;;2.08;;
27889;SDS011;15238;49.082;9.102;2023-08-31T05:09:16;3.22;;;1.98;;
27889;SDS011;15238;49.082;9.102;2023-08-31T05:11:16;3.60;;;1.80;;
27889;SDS011;15238;49.082;9.102;2023-08-31T05:13:17;3.50;;;1.73;;
27889;SDS011;15238;49.082;9.102;2023-08-31T05:15:17;4.78;;;2.00;;
27889;SDS011;15238;49.082;9.102;2023-08-31T05:17:18;4.00;;;1.77;;
27889;SDS011;15238;49.082;9.102;2023-08-31T05:19:18;10.80;;;1.98;;
27889;SDS011;15238;49.082;9.102;2023-08-31T05:21:19;4.82;;;1.80;;
27889;SDS011;15238;49.082;9.102;2023-08-31T05:23:19;10.05;;;1.92;;
27889;SDS011;15238;49.082;9.102;2023-08-31T05:25:20;4.70;;;1.52;;
27889;SDS011;15238;49.082;9.102;2023-08-31T05:27:20;5.15;;;1.58;;
27889;SDS011;15238;49.082;9.102;2023-08-31T05:29:21;2.50;;;1.50;;
27889;SDS011;15238;49.082;9.102;2023-08-31T05:31:21;2.53;;;1.48;;
27889;SDS011;15238;49.082;9.102;2023-08-31T05:33:22;4.88;;;1.73;;
27889;SDS011;15238;49.082;9.102;2023-08-31T05:35:22;8.25;;;1.73;;
27889;SDS011;15238;49.082;9.102;2023-08-31T05:37:23;3.50;;;1.58;;
27889;SDS011;15238;49.082;9.102;2023-08-31T05:39:23;3.15;;;1.58;;
27889;SDS011;15238;49.082;9.102;2023-08-31T05:41:25;3.40;;;1.50;;
27889;SDS011;15238;49.082;9.102;2023-08-31T05:43:26;4.72;;;1.40;;
27889;SDS011;15238;49.082;9.102;2023-08-31T05:45:27;3.72;;;1.77;;
27889;SDS011;15238;49.082;9.102;2023-08-31T05:47:27;3.38;;;1.38;;
27889;SDS011;15238;49.082;9.102;2023-08-31T05:49:28;7.82;;;1.50;;
27889;SDS011;15238;49.082;9.102;2023-08-31T05:51:28;4.13;;;1.60;;
27889;SDS011;15238;49.082;9.102;2023-08-31T05:53:32;5.00;;;1.02;;
27889;SDS011;15238;49.082;9.102;2023-08-31T05:55:33;5.50;;;1.65;;
27889;SDS011;15238;49.082;9.102;2023-08-31T05:57:33;8.65;;;1.40;;
27889;SDS011;15238;49.082;9.102;2023-08-31T05:59:34;3.28;;;1.35;;
27889;SDS011;15238;49.082;9.102;2023-08-31T06:01:35;6.35;;;1.50;;
27889;SDS011;15238;49.082;9.102;2023-08-31T06:03:36;4.32;;;1.30;;
27889;SDS011;15238;49.082;9.102;2023-08-31T06:05:37;4.38;;;1.25;;
27889;SDS011;15238;49.082;9.102;2023-08-31T06:07:38;3.28;;;1.17;;
27889;SDS011;15238;49.082;9.102;2023-08-31T06:09:39;2.72;;;1.40;;
27889;SDS011;15238;49.082;9.102;2023-08-31T06:11:40;1.92;;;1.00;;
27889;SDS011;15238;49.082;9.102;2023-08-31T06:13:40;5.72;;;1.30;;
27889;SDS011;15238;49.082;9.102;2023-08-31T06:15:41;6.18;;;1.40;;
27889;SDS011;15238;49.082;9.102;2023-08-31T06:17:41;3.55;;;1.35;;
27889;SDS011;15238;49.082;9.102;2023-08-31T06:19:42;3.35;;;1.30;;
27889;SDS011;15238;49.082;9.102;2023-08-31T06:21:43;7.45;;;1.60;;
27889;SDS011;15238;49.082;9.102;2023-08-31T06:23:44;2.30;;;1.33;;
27889;SDS011;15238;49.082;9.102;2023-08-31T06:25:44;3.67;;;1.38;;
27889;SDS011;15238;49.082;9.102;2023-08-31T06:27:46;4.22;;;1.60;;
27889;SDS011;15238;49.082;9.102;2023-08-31T06:29:46;7.95;;;1.35;;
27889;SDS011;15238;49.082;9.102;2023-08-31T06:31:47;4.43;;;1.20;;
27889;SDS011;15238;49.082;9.102;2023-08-31T06:33:47;5.97;;;1.50;;
27889;SDS011;15238;49.082;9.102;2023-08-31T06:35:48;8.10;;;1.42;;
27889;SDS011;15238;49.082;9.102;2023-08-31T06:37:51;7.70;;;1.63;;
27889;SDS011;15238;49.082;9.102;2023-08-31T06:39:51;2.70;;;1.30;;
27889;SDS011;15238;49.082;9.102;2023-08-31T06:41:52;4.43;;;1.50;;
27889;SDS011;15238;49.082;9.102;2023-08-31T06:43:52;9.18;;;1.80;;
27889;SDS011;15238;49.082;9.102;2023-08-31T06:45:53;6.28;;;1.40;;
27889;SDS011;15238;49.082;9.102;2023-08-31T06:47:54;2.80;;;1.20;;
27889;SDS011;15238;49.082;9.102;2023-08-31T06:49:54;6.75;;;1.48;;
27889;SDS011;15238;49.082;9.102;2023-08-31T06:51:55;2.15;;;1.20;;
27889;SDS011;15238;49.082;9.102;2023-08-31T06:53:55;2.45;;;1.20;;
27889;SDS011;15238;49.082;9.102;2023-08-31T06:55:56;3.90;;;1.15;;
27889;SDS011;15238;49.082;9.102;2023-08-31T06:57:56;6.07;;;1.65;;
27889;SDS011;15238;49.082;9.102;2023-08-31T06:59:57;5.15;;;1.40;;
27889;SDS011;15238;49.082;9.102;2023-08-31T07:01:57;4.93;;;1.10;;
27889;SDS011;15238;49.082;9.102;2023-08-31T07:03:58;2.83;;;1.35;;
27889;SDS011;15238;49.082;9.102;2023-08-31T07:05:59;6.00;;;1.00;;
27889;SDS011;15238;49.082;9.102;2023-08-31T07:07:59;4.10;;;1.15;;
27889;SDS011;15238;49.082;9.102;2023-08-31T07:10:00;3.65;;;1.58;;
27889;SDS011;15238;49.082;9.102;2023-08-31T07:12:00;3.35;;;1.20;;
27889;SDS011;15238;49.082;9.102;2023-08-31T07:14:02;2.72;;;1.10;;
27889;SDS011;15238;49.082;9.102;2023-08-31T07:16:03;2.88;;;1.20;;
27889;SDS011;15238;49.082;9.102;2023-08-31T07:18:04;3.63;;;1.02;;
27889;SDS011;15238;49.082;9.102;2023-08-31T07:20:05;6.20;;;1.65;;
27889;SDS011;15238;49.082;9.102;2023-08-31T07:22:06;1.80;;;0.93;;
27889;SDS011;15238;49.082;9.102;2023-08-31T07:24:07;3.47;;;1.13;;
27889;SDS011;15238;49.082;9.102;2023-08-31T07:26:08;5.43;;;1.35;;
27889;SDS011;15238;49.082;9.102;2023-08-31T07:28:08;5.78;;;0.95;;
27889;SDS011;15238;49.082;9.102;2023-08-31T07:30:10;1.70;;;0.93;;
27889;SDS011;15238;49.082;9.102;2023-08-31T07:32:11;6.32;;;1.48;;
27889;SDS011;15238;49.082;9.102;2023-08-31T07:34:11;4.75;;;0.80;;
27889;SDS011;15238;49.082;9.102;2023-08-31T07:36:12;7.05;;;1.63;;
27889;SDS011;15238;49.082;9.102;2023-08-31T07:38:12;3.80;;;1.40;;
27889;SDS011;15238;49.082;9.102;2023-08-31T07:40:12;3.17;;;1.30;;
27889;SDS011;15238;49.082;9.102;2023-08-31T07:42:13;4.85;;;1.73;;
27889;SDS011;15238;49.082;9.102;2023-08-31T07:44:14;7.05;;;1.20;;
27889;SDS011;15238;49.082;9.102;2023-08-31T07:46:14;3.35;;;1.15;;
27889;SDS011;15238;49.082;9.102;2023-08-31T07:48:15;12.27;;;1.88;;
27889;SDS011;15238;49.082;9.102;2023-08-31T07:50:16;5.22;;;1.25;;
27889;SDS011;15238;49.082;9.102;2023-08-31T07:52:16;5.38;;;1.25;;
27889;SDS011;15238;49.082;9.102;2023-08-31T07:54:20;4.40;;;1.05;;
27889;SDS011;15238;49.082;9.102;2023-08-31T07:56:22;4.43;;;1.00;;
27889;SDS011;15238;49.082;9.102;2023-08-31T07:58:25;2.40;;;1.08;;
27889;SDS011;15238;49.082;9.102;2023-08-31T08:00:26;3.45;;;0.93;;
27889;SDS011;15238;49.082;9.102;2023-08-31T08:02:26;2.90;;;1.00;;
27889;SDS011;15238;49.082;9.102;2023-08-31T08:04:27;2.47;;;0.85;;
27889;SDS011;15238;49.082;9.102;2023-08-31T08:06:29;3.88;;;1.15;;
27889;SDS011;15238;49.082;9.102;2023-08-31T08:08:30;3.55;;;0.80;;
27889;SDS011;15238;49.082;9.102;2023-08-31T08:10:30;2.67;;;1.02;;
27889;SDS011;15238;49.082;9.102;2023-08-31T08:12:40;4.22;;;1.10;;
27889;SDS011;15238;49.082;9.102;2023-08-31T08:14:44;4.25;;;0.98;;
27889;SDS011;15238;49.082;9.102;2023-08-31T08:16:45;3.70;;;1.00;;
27889;SDS011;15238;49.082;9.102;2023-08-31T08:18:45;3.13;;;1.08;;
27889;SDS011;15238;49.082;9.102;2023-08-31T08:20:52;1.88;;;1.10;;
27889;SDS011;15238;49.082;9.102;2023-08-31T08:22:53;3.47;;;1.40;;
27889;SDS011;15238;49.082;9.102;2023-08-31T08:24:53;3.88;;;1.50;;
27889;SDS011;15238;49.082;9.102;2023-08-31T08:26:54;5.10;;;1.48;;
27889;SDS011;15238;49.082;9.102;2023-08-31T08:28:54;1.70;;;0.98;;
27889;SDS011;15238;49.082;9.102;2023-08-31T08:30:55;7.03;;;1.50;;
27889;SDS011;15238;49.082;9.102;2023-08-31T08:32:56;3.80;;;1.05;;
27889;SDS011;15238;49.082;9.102;2023-08-31T08:34:57;4.72;;;1.20;;
27889;SDS011;15238;49.082;9.102;2023-08-31T08:36:57;3.47;;;1.15;;
27889;SDS011;15238;49.082;9.102;2023-08-31T08:38:58;3.20;;;1.17;;
27889;SDS011;15238;49.082;9.102;2023-08-31T08:41:03;6.20;;;1.10;;
27889;SDS011;15238;49.082;9.102;2023-08-31T08:43:06;4.43;;;1.25;;
27889;SDS011;15238;49.082;9.102;2023-08-31T08:45:12;2.47;;;1.30;;
27889;SDS011;15238;49.082;9.102;2023-08-31T08:47:19;4.65;;;0.95;;
27889;SDS011;15238;49.082;9.102;2023-08-31T08:49:20;4.45;;;1.17;;
27889;SDS011;15238;49.082;9.102;2023-08-31T08:51:23;4.55;;;1.15;;
27889;SDS011;15238;49.082;9.102;2023-08-31T08:53:23;5.80;;;1.10;;
27889;SDS011;15238;49.082;9.102;2023-08-31T08:55:24;3.85;;;1.02;;
27889;SDS011;15238;49.082;9.102;2023-08-31T08:57:24;4.00;;;1.00;;
27889;SDS011;15238;49.082;9.102;2023-08-31T08:59:25;4.82;;;1.23;;
27889;SDS011;15238;49.082;9.102;2023-08-31T09:01:25;7.25;;;1.30;;
27889;SDS011;15238;49.082;9.102;2023-08-31T09:03:26;3.40;;;0.80;;
27889;SDS011;15238;49.082;9.102;2023-08-31T09:05:27;2.38;;;0.80;;
27889;SDS011;15238;49.082;9.102;2023-08-31T09:07:34;4.00;;;1.10;;
27889;SDS011;15238;49.082;9.102;2023-08-31T09:09:49;7.22;;;1.05;;
27889;SDS011;15238;49.082;9.102;2023-08-31T09:11:51;5.50;;;1.05;;
27889;SDS011;15238;49.082;9.102;2023-08-31T09:13:51;3.05;;;1.33;;
27889;SDS011;15238;49.082;9.102;2023-08-31T09:15:52;4.80;;;1.50;;
27889;SDS011;15238;49.082;9.102;2023-08-31T09:17:52;6.40;;;0.90;;
27889;SDS011;15238;49.082;9.102;2023-08-31T09:20:00;3.22;;;1.00;;
27889;SDS011;15238;49.082;9.102;2023-08-31T09:22:01;5.00;;;1.10;;
27889;SDS011;15238;49.082;9.102;2023-08-31T09:24:02;3.20;;;1.35;;
27889;SDS011;15238;49.082;9.102;2023-08-31T09:26:05;3.10;;;1.25;;
27889;SDS011;15238;49.082;9.102;2023-08-31T09:28:05;3.03;;;1.10;;
27889;SDS011;15238;49.082;9.102;2023-08-31T09:30:06;2.90;;;1.27;;
27889;SDS011;15238;49.082;9.102;2023-08-31T09:32:07;3.03;;;1.35;;
27889;SDS011;15238;49.082;9.102;2023-08-31T09:34:07;3.85;;;1.35;;
27889;SDS011;15238;49.082;9.102;2023-08-31T09:36:08;4.35;;;1.20;;
27889;SDS011;15238;49.082;9.102;2023-08-31T09:38:09;5.80;;;1.20;;
27889;SDS011;15238;49.082;9.102;2023-08-31T09:40:09;2.65;;;0.70;;
27889;SDS011;15238;49.082;9.102;2023-08-31T09:42:14;2.55;;;1.00;;
27889;SDS011;15238;49.082;9.102;2023-08-31T09:44:15;2.05;;;1.13;;
27889;SDS011;15238;49.082;9.102;2023-08-31T09:46:16;4.03;;;1.35;;
27889;SDS011;15238;49.082;9.102;2023-08-31T09:48:19;5.30;;;1.30;;
27889;SDS011;15238;49.082;9.102;2023-08-31T09:50:19;6.53;;;1.35;;
27889;SDS011;15238;49.082;9.102;2023-08-31T09:52:21;7.13;;;1.08;;
27889;SDS011;15238;49.082;9.102;2023-08-31T09:54:23;2.78;;;1.42;;
27889;SDS011;15238;49.082;9.102;2023-08-31T09:56:27;2.53;;;1.00;;
27889;SDS011;15238;49.082;9.102;2023-08-31T09:58:32;2.90;;;1.02;;
27889;SDS011;15238;49.082;9.102;2023-08-31T10:00:35;3.60;;;1.08;;
27889;SDS011;15238;49.082;9.102;2023-08-31T10:02:36;2.53;;;0.90;;
27889;SDS011;15238;49.082;9.102;2023-08-31T10:04:37;3.03;;;1.27;;
27889;SDS011;15238;49.082;9.102;2023-08-31T10:06:42;2.45;;;1.20;;
27889;SDS011;15238;49.082;9.102;2023-08-31T10:08:43;2.88;;;0.90;;
27889;SDS011;15238;49.082;9.102;2023-08-31T10:10:44;3.45;;;1.05;;
27889;SDS011;15238;49.082;9.102;2023-08-31T10:12:45;2.88;;;1.40;;
27889;SDS011;15238;49.082;9.102;2023-08-31T10:14:49;4.10;;;1.08;;
27889;SDS011;15238;49.082;9.102;2023-08-31T10:16:52;2.05;;;0.93;;
27889;SDS011;15238;49.082;9.102;2023-08-31T10:18:55;3.70;;;1.30;;
27889;SDS011;15238;49.082;9.102;2023-08-31T10:20:56;4.82;;;1.30;;
27889;SDS011;15238;49.082;9.102;2023-08-31T10:23:06;4.78;;;0.98;;
27889;SDS011;15238;49.082;9.102;2023-08-31T10:25:07;2.55;;;0.90;;
27889;SDS011;15238;49.082;9.102;2023-08-31T10:27:20;4.78;;;1.08;;
27889;SDS011;15238;49.082;9.102;2023-08-31T10:29:27;1.85;;;0.85;;
27889;SDS011;15238;49.082;9.102;2023-08-31T10:31:29;5.53;;;1.33;;
27889;SDS011;15238;49.082;9.102;2023-08-31T10:33:31;2.17;;;1.00;;
27889;SDS011;15238;49.082;9.102;2023-08-31T10:35:52;2.35;;;0.95;;
27889;SDS011;15238;49.082;9.102;2023-08-31T10:38:12;2.75;;;0.95;;
27889;SDS011;15238;49.082;9.102;2023-08-31T10:40:17;2.30;;;1.15;;
27889;SDS011;15238;49.082;9.102;2023-08-31T10:42:18;2.38;;;1.02;;
27889;SDS011;15238;49.082;9.102;2023-08-31T10:44:24;4.65;;;0.85;;
27889;SDS011;15238;49.082;9.102;2023-08-31T10:46:35;5.20;;;1.10;;
27889;SDS011;15238;49.082;9.102;2023-08-31T10:48:51;2.15;;;1.20;;
27889;SDS011;15238;49.082;9.102;2023-08-31T10:50:53;4.55;;;1.38;;
27889;SDS011;15238;49.082;9.102;2023-08-31T10:53:07;5.03;;;1.10;;
27889;SDS011;15238;49.082;9.102;2023-08-31T10:55:08;3.28;;;1.05;;
27889;SDS011;15238;49.082;9.102;2023-08-31T10:57:09;3.10;;;1.00;;
27889;SDS011;15238;49.082;9.102;2023-08-31T10:59:12;4.18;;;1.05;;
27889;SDS011;15238;49.082;9.102;2023-08-31T11:01:14;4.30;;;1.27;;
27889;SDS011;15238;49.082;9.102;2023-08-31T11:03:14;5.15;;;1.45;;
27889;SDS011;15238;49.082;9.102;2023-08-31T11:05:15;2.67;;;1.15;;
27889;SDS011;15238;49.082;9.102;2023-08-31T11:07:17;4.00;;;1.25;;
27889;SDS011;15238;49.082;9.102;2023-08-31T11:09:20;4.68;;;1.08;;
27889;SDS011;15238;49.082;9.102;2023-08-31T11:11:22;3.08;;;1.27;;
27889;SDS011;15238;49.082;9.102;2023-08-31T11:13:23;4.70;;;1.58;;
27889;SDS011;15238;49.082;9.102;2023-08-31T11:15:26;3.20;;;1.10;;
27889;SDS011;15238;49.082;9.102;2023-08-31T11:17:29;3.42;;;1.05;;
27889;SDS011;15238;49.082;9.102;2023-08-31T11:19:34;3.15;;;1.30;;
27889;SDS011;15238;49.082;9.102;2023-08-31T11:21:38;4.32;;;1.40;;
27889;SDS011;15238;49.082;9.102;2023-08-31T11:23:38;5.00;;;1.25;;
27889;SDS011;15238;49.082;9.102;2023-08-31T11:25:39;3.25;;;1.17;;
27889;SDS011;15238;49.082;9.102;2023-08-31T11:27:40;5.65;;;1.35;;
27889;SDS011;15238;49.082;9.102;2023-08-31T11:29:43;3.03;;;0.80;;
27889;SDS011;15238;49.082;9.102;2023-08-31T11:31:44;3.17;;;0.93;;
27889;SDS011;15238;49.082;9.102;2023-08-31T11:33:46;5.13;;;1.27;;
27889;SDS011;15238;49.082;9.102;2023-08-31T11:35:47;5.80;;;1.40;;
27889;SDS011;15238;49.082;9.102;2023-08-31T11:37:51;4.78;;;1.23;;
27889;SDS011;15238;49.082;9.102;2023-08-31T11:39:56;7.05;;;1.50;;
27889;SDS011;15238;49.082;9.102;2023-08-31T11:42:01;3.78;;;1.40;;
27889;SDS011;15238;49.082;9.102;2023-08-31T11:44:03;4.90;;;1.20;;
27889;SDS011;15238;49.082;9.102;2023-08-31T11:46:04;5.40;;;1.23;;
27889;SDS011;15238;49.082;9.102;2023-08-31T11:48:06;5.57;;;1.38;;
27889;SDS011;15238;49.082;9.102;2023-08-31T11:50:07;4.55;;;1.15;;
27889;SDS011;15238;49.082;9.102;2023-08-31T11:52:11;2.65;;;0.93;;
27889;SDS011;15238;49.082;9.102;2023-08-31T11:54:13;4.85;;;1.90;;
27889;SDS011;15238;49.082;9.102;2023-08-31T11:56:13;3.88;;;1.10;;
27889;SDS011;15238;49.082;9.102;2023-08-31T11:58:14;3.38;;;1.05;;
27889;SDS011;15238;49.082;9.102;2023-08-31T12:00:16;8.23;;;1.63;;
27889;SDS011;15238;49.082;9.102;2023-08-31T12:02:18;2.28;;;1.00;;
27889;SDS011;15238;49.082;9.102;2023-08-31T12:04:20;2.28;;;1.10;;
27889;SDS011;15238;49.082;9.102;2023-08-31T12:06:22;4.53;;;1.35;;
27889;SDS011;15238;49.082;9.102;2023-08-31T12:08:23;3.88;;;1.30;;
27889;SDS011;15238;49.082;9.102;2023-08-31T12:10:25;3.35;;;1.08;;
27889;SDS011;15238;49.082;9.102;2023-08-31T12:12:26;1.60;;;1.00;;
27889;SDS011;15238;49.082;9.102;2023-08-31T12:14:28;6.30;;;1.25;;
27889;SDS011;15238;49.082;9.102;2023-08-31T12:16:34;3.90;;;1.08;;
27889;SDS011;15238;49.082;9.102;2023-08-31T12:18:37;3.35;;;1.33;;
27889;SDS011;15238;49.082;9.102;2023-08-31T12:20:44;8.63;;;1.33;;
27889;SDS011;15238;49.082;9.102;2023-08-31T12:22:45;6.70;;;1.48;;